Time;durP1;ratioP1;P1;durP2;ratioP2;P2;SDS_P1;SDS_P2;PMS_P1;PMS_P2;Temp;Humidity;BMP_temperature;BMP_pressure;BME280_temperature;BME280_humidity;BME280_pressure;Samples;Min_cycle;Max_cycle;Signal;HPM_P1;HPM_P2
2023/04/21 00:01:13;;;;;;;;;;;;;;;11.44;74.02;101534.06;4091525;29;20013;-68
2023/04/21 00:03:16;;;;;;;;;;;;;;;11.45;74.30;101532.19;4108928;28;19930;-68
2023/04/21 00:05:24;;;;;;;;;;;;;;;11.45;73.95;101535.75;4108996;28;19927;-68
2023/04/21 00:07:26;;;;;;;;;;;;;;;11.46;74.31;101536.59;4109227;28;20369;-67
2023/04/21 00:09:29;;;;;;;;;;;;;;;11.46;74.14;101539.31;4108389;28;20017;-68
2023/04/21 00:11:31;;;;;;;;;;;;;;;11.46;74.39;101536.59;4108439;28;20021;-68
2023/04/21 00:13:34;;;;;;;;;;;;;;;11.46;74.25;101534.75;4108672;28;20017;-68
2023/04/21 00:15:36;;;;;;;;;;;;;;;11.47;74.39;101538.28;4108462;28;20016;-68
2023/04/21 00:17:38;;;;;;;;;;;;;;;11.47;74.19;101535.56;4108288;28;20409;-67
2023/04/21 00:19:40;;;;;;;;;;;;;;;11.46;74.33;101537.44;4108207;28;20041;-67
2023/04/21 00:21:43;;;;;;;;;;;;;;;11.46;74.31;101537.44;4107775;28;20013;-67
2023/04/21 00:23:48;;;;;;;;;;;;;;;11.47;74.17;101535.56;4108690;28;20001;-66
2023/04/21 00:25:51;;;;;;;;;;;;;;;11.47;73.80;101532.88;4107671;28;20520;-66
2023/04/21 00:27:53;;;;;;;;;;;;;;;11.47;73.86;101539.16;4108145;28;20457;-67
2023/04/21 00:29:55;;;;;;;;;;;;;;;11.47;73.68;101528.34;4107920;28;20413;-67
2023/04/21 00:31:57;;;;;;;;;;;;;;;11.48;73.82;101530.00;4107317;28;20022;-67
2023/04/21 00:33:59;;;;;;;;;;;;;;;11.47;73.74;101528.34;4089915;29;20041;-67
2023/04/21 00:36:01;;;;;;;;;;;;;;;11.47;74.02;101530.16;4108587;28;20371;-67
2023/04/21 00:38:05;;;;;;;;;;;;;;;11.46;73.65;101526.63;4091401;29;20022;-67
2023/04/21 00:40:07;;;;;;;;;;;;;;;11.47;73.72;101522.06;4108485;28;20040;-66
2023/04/21 00:42:09;;;;;;;;;;;;;;;11.47;73.73;101525.63;4108024;28;20012;-67
2023/04/21 00:44:11;;;;;;;;;;;;;;;11.47;73.27;101525.63;4074567;29;19982;-67
2023/04/21 00:46:13;;;;;;;;;;;;;;;11.46;73.34;101532.03;4075446;29;20025;-67
2023/04/21 00:48:16;;;;;;;;;;;;;;;11.46;73.20;101533.91;4107345;28;20025;-68
2023/04/21 00:50:18;;;;;;;;;;;;;;;11.45;73.07;101526.78;4107648;28;20017;-67
2023/04/21 00:52:21;;;;;;;;;;;;;;;11.44;73.49;101519.69;4091107;28;20009;-66
2023/04/21 00:54:25;;;;;;;;;;;;;;;11.43;73.21;101531.53;4105849;28;20017;-66
2023/04/21 00:56:29;;;;;;;;;;;;;;;11.43;72.95;101528.81;4105564;28;19969;-67
2023/04/21 00:58:31;;;;;;;;;;;;;;;11.42;73.43;101527.94;4107817;28;20018;-68
2023/04/21 01:00:33;;;;;;;;;;;;;;;11.42;73.41;101527.13;4090730;28;20017;-66
2023/04/21 01:02:35;;;;;;;;;;;;;;;11.40;72.97;101521.88;4107046;28;20021;-67
2023/04/21 01:04:39;;;;;;;;;;;;;;;11.39;72.78;101524.72;4106495;28;19934;-67
2023/04/21 01:06:41;;;;;;;;;;;;;;;11.36;72.76;101521.34;4107586;28;20476;-67
2023/04/21 01:08:43;;;;;;;;;;;;;;;11.36;73.01;101520.50;4105583;28;20013;-67
2023/04/21 01:10:46;;;;;;;;;;;;;;;11.35;72.82;101518.81;4090535;29;20045;-67
2023/04/21 01:12:48;;;;;;;;;;;;;;;11.33;72.81;101524.38;4106373;28;20049;-67
2023/04/21 01:14:50;;;;;;;;;;;;;;;11.32;73.11;101522.69;4090112;29;20040;-66
2023/04/21 01:16:52;;;;;;;;;;;;;;;11.30;72.71;101519.31;4090762;29;20030;-67
2023/04/21 01:18:55;;;;;;;;;;;;;;;11.30;72.65;101516.59;4106904;28;20042;-67
2023/04/21 01:20:58;;;;;;;;;;;;;;;11.28;72.61;101526.72;4073886;29;20171;-67
2023/04/21 01:23:01;;;;;;;;;;;;;;;11.28;72.39;101523.16;4105396;28;20009;-67
2023/04/21 01:25:02;;;;;;;;;;;;;;;11.26;72.49;101520.63;4107130;28;19985;-67
2023/04/21 01:27:08;;;;;;;;;;;;;;;11.25;72.46;101515.38;4107524;28;20046;-67
2023/04/21 01:29:10;;;;;;;;;;;;;;;11.24;72.67;101525.34;4090020;28;20927;-67
2023/04/21 01:31:12;;;;;;;;;;;;;;;11.25;72.54;101509.97;4107716;28;20026;-67
2023/04/21 01:33:14;;;;;;;;;;;;;;;11.23;72.42;101506.59;4089981;29;20034;-67
2023/04/21 01:35:16;;;;;;;;;;;;;;;11.21;72.28;101512.16;4107564;28;20021;-67
2023/04/21 01:37:19;;;;;;;;;;;;;;;11.19;71.78;101506.06;4074643;29;19989;-67
2023/04/21 01:39:24;;;;;;;;;;;;;;;11.17;71.67;101508.94;4105793;28;20020;-67
2023/04/21 01:41:26;;;;;;;;;;;;;;;11.16;71.57;101512.66;4105962;28;20621;-67
2023/04/21 01:43:29;;;;;;;;;;;;;;;11.14;71.77;101514.69;4089814;28;20388;-67
2023/04/21 01:45:32;;;;;;;;;;;;;;;11.14;71.33;101503.84;4106922;28;20440;-67
2023/04/21 01:47:34;;;;;;;;;;;;;;;11.12;71.75;101510.44;4074782;29;20023;-67
2023/04/21 01:49:36;;;;;;;;;;;;;;;11.10;71.21;101504.34;4089138;29;20009;-67
2023/04/21 01:51:38;;;;;;;;;;;;;;;11.09;71.60;101508.03;4089816;28;19935;-67
2023/04/21 01:53:41;;;;;;;;;;;;;;;11.07;71.26;101508.22;4106921;28;20029;-68
2023/04/21 01:55:44;;;;;;;;;;;;;;;11.07;71.34;101508.22;4074192;29;20417;-67
2023/04/21 01:57:46;;;;;;;;;;;;;;;11.08;71.29;101500.94;4090298;29;19958;-67
2023/04/21 01:59:48;;;;;;;;;;;;;;;11.07;71.41;101507.38;4088918;29;20010;-67
2023/04/21 02:01:51;;;;;;;;;;;;;;;11.06;71.38;101494.84;4105061;28;20018;-67
2023/04/21 02:03:53;;;;;;;;;;;;;;;11.05;71.25;101498.56;4106359;28;20373;-67
2023/04/21 02:05:55;;;;;;;;;;;;;;;11.05;70.92;101491.31;4106627;28;19962;-66
2023/04/21 02:07:57;;;;;;;;;;;;;;;11.04;70.76;101496.88;4106213;28;20013;-66
2023/04/21 02:09:59;;;;;;;;;;;;;;;11.02;70.82;101496.16;4106617;28;20017;-66
2023/04/21 02:12:03;;;;;;;;;;;;;;;11.01;70.47;101500.75;4073690;29;20035;-67
2023/04/21 02:14:05;;;;;;;;;;;;;;;11.00;70.72;101489.09;4074292;29;20037;-66
2023/04/21 02:16:08;;;;;;;;;;;;;;;10.98;70.42;101495.66;4107142;28;20018;-66
2023/04/21 02:18:10;;;;;;;;;;;;;;;10.96;70.28;101498.53;4106338;28;20445;-67
2023/04/21 02:20:12;;;;;;;;;;;;;;;10.94;69.95;101495.13;4106544;28;20029;-67
2023/04/21 02:22:14;;;;;;;;;;;;;;;10.93;70.03;101492.59;4106551;28;20468;-67
2023/04/21 02:24:16;;;;;;;;;;;;;;;10.91;69.83;101489.19;4105381;28;20018;-67
2023/04/21 02:26:20;;;;;;;;;;;;;;;10.90;69.78;101484.81;4090024;28;19930;-67
2023/04/21 02:28:24;;;;;;;;;;;;;;;10.90;69.85;101487.50;4105884;28;20034;-67
2023/04/21 02:30:26;;;;;;;;;;;;;;;10.89;69.81;101480.41;4106166;28;20018;-67
2023/04/21 02:32:29;;;;;;;;;;;;;;;10.88;69.77;101484.97;4089507;28;20025;-67
2023/04/21 02:34:32;;;;;;;;;;;;;;;10.88;69.41;101484.09;4104819;28;20028;-67
2023/04/21 02:36:34;;;;;;;;;;;;;;;10.87;69.37;101483.28;4089121;29;20418;-66
2023/04/21 02:38:36;;;;;;;;;;;;;;;10.85;69.73;101484.47;4106093;28;20021;-67
2023/04/21 02:40:38;;;;;;;;;;;;;;;10.86;69.56;101483.44;4089331;29;20042;-69
2023/04/21 02:42:40;;;;;;;;;;;;;;;10.85;69.75;101489.84;4106072;28;20033;-67
2023/04/21 02:44:44;;;;;;;;;;;;;;;10.83;69.29;101481.91;4105743;28;20460;-67
2023/04/21 02:46:46;;;;;;;;;;;;;;;10.82;69.10;101483.75;4106421;28;20416;-67
2023/04/21 02:48:49;;;;;;;;;;;;;;;10.80;69.22;101480.38;4105045;28;20022;-67
2023/04/21 02:50:52;;;;;;;;;;;;;;;10.80;69.20;101487.63;4089456;29;20040;-67
2023/04/21 02:52:54;;;;;;;;;;;;;;;10.80;69.05;101490.34;4072967;29;20453;-67
2023/04/21 02:54:56;;;;;;;;;;;;;;;10.79;69.21;101486.78;4106437;28;20030;-67
2023/04/21 02:57:00;;;;;;;;;;;;;;;10.79;69.20;101488.63;4072746;29;20021;-67
2023/04/21 02:59:03;;;;;;;;;;;;;;;10.76;69.08;101481.69;4088874;29;20062;-66
2023/04/21 03:01:06;;;;;;;;;;;;;;;10.75;69.17;101482.72;4088756;29;20029;-67
2023/04/21 03:03:10;;;;;;;;;;;;;;;10.74;69.14;101483.72;4088601;29;20017;-67
2023/04/21 03:05:12;;;;;;;;;;;;;;;10.72;68.90;101479.47;4106144;28;20017;-67
2023/04/21 03:07:15;;;;;;;;;;;;;;;10.72;69.00;101483.03;4106047;28;19935;-67
2023/04/21 03:09:17;;;;;;;;;;;;;;;10.70;69.11;101478.78;4104231;28;20620;-67
2023/04/21 03:11:19;;;;;;;;;;;;;;;10.69;69.01;101477.94;4105334;28;20013;-68
2023/04/21 03:13:23;;;;;;;;;;;;;;;10.69;68.73;101482.47;4105621;28;19926;-68
2023/04/21 03:15:26;;;;;;;;;;;;;;;10.68;68.89;101476.25;4087556;29;20017;-68
2023/04/21 03:17:30;;;;;;;;;;;;;;;10.68;69.04;101481.66;4089010;28;19958;-68
2023/04/21 03:19:32;;;;;;;;;;;;;;;10.68;68.98;101476.25;4104271;28;20385;-68
2023/04/21 03:21:36;;;;;;;;;;;;;;;10.67;68.59;101473.69;4105624;28;20021;-67
2023/04/21 03:23:38;;;;;;;;;;;;;;;10.65;68.66;101476.56;4073393;29;20053;-66
2023/04/21 03:25:40;;;;;;;;;;;;;;;10.62;68.42;101471.47;4088851;29;20501;-67
2023/04/21 03:27:42;;;;;;;;;;;;;;;10.61;68.48;101477.88;4104452;28;20456;-66
2023/04/21 03:29:45;;;;;;;;;;;;;;;10.60;68.47;101477.03;4103508;28;20053;-66
2023/04/21 03:31:47;;;;;;;;;;;;;;;10.59;68.92;101471.78;4104444;28;20045;-67
2023/04/21 03:33:50;;;;;;;;;;;;;;;10.59;68.95;101475.31;4104784;28;20018;-66
2023/04/21 03:35:52;;;;;;;;;;;;;;;10.57;68.82;101480.06;4072377;29;20038;-67
2023/04/21 03:37:54;;;;;;;;;;;;;;;10.58;68.75;101475.50;4088139;28;20025;-68
2023/04/21 03:39:56;;;;;;;;;;;;;;;10.56;68.80;101482.91;4104200;28;20017;-68
2023/04/21 03:41:58;;;;;;;;;;;;;;;10.56;68.43;101472.94;4073526;29;20030;-67
2023/04/21 03:44:00;;;;;;;;;;;;;;;10.56;68.43;101477.50;4087263;29;20050;-67
2023/04/21 03:46:03;;;;;;;;;;;;;;;10.53;68.51;101476.00;4104186;28;20025;-66
2023/04/21 03:48:05;;;;;;;;;;;;;;;10.53;68.64;101480.53;4104177;28;20568;-67
2023/04/21 03:50:09;;;;;;;;;;;;;;;10.50;68.49;101476.31;4072028;29;20014;-67
2023/04/21 03:52:11;;;;;;;;;;;;;;;10.51;68.37;101483.38;4104114;28;20013;-67
2023/04/21 03:54:13;;;;;;;;;;;;;;;10.49;68.56;101480.00;4103162;28;20033;-66
2023/04/21 03:56:16;;;;;;;;;;;;;;;10.49;68.47;101476.47;4103878;28;20033;-66
2023/04/21 03:58:18;;;;;;;;;;;;;;;10.49;68.78;101487.28;4104253;28;20016;-67
2023/04/21 04:00:20;;;;;;;;;;;;;;;10.49;68.78;101482.72;4104935;28;20090;-67
2023/04/21 04:02:22;;;;;;;;;;;;;;;10.48;68.38;101480.16;4104399;28;20369;-67
2023/04/21 04:04:24;;;;;;;;;;;;;;;10.47;68.40;101482.03;4104468;28;20025;-67
2023/04/21 04:06:28;;;;;;;;;;;;;;;10.45;68.31;101489.41;4103587;28;20111;-67
2023/04/21 04:08:30;;;;;;;;;;;;;;;10.44;68.36;101483.19;4103505;28;19930;-66
2023/04/21 04:10:32;;;;;;;;;;;;;;;10.43;68.32;101489.56;4104288;28;20049;-67
2023/04/21 04:12:34;;;;;;;;;;;;;;;10.42;68.48;101493.31;4104812;28;20017;-68
2023/04/21 04:14:36;;;;;;;;;;;;;;;10.42;68.22;101487.03;4104604;28;20053;-66
2023/04/21 04:16:40;;;;;;;;;;;;;;;10.40;67.95;101499.84;4104082;28;20020;-65
2023/04/21 04:18:42;;;;;;;;;;;;;;;10.38;68.08;101491.91;4104076;28;20021;-67
2023/04/21 04:20:44;;;;;;;;;;;;;;;10.38;68.37;101482.97;4103167;28;20021;-66
2023/04/21 04:22:47;;;;;;;;;;;;;;;10.37;68.41;101483.97;4103516;28;20049;-67
2023/04/21 04:24:50;;;;;;;;;;;;;;;10.36;68.12;101487.66;4104512;28;20021;-67
2023/04/21 04:26:52;;;;;;;;;;;;;;;10.35;68.07;101488.69;4101809;28;20020;-66
2023/04/21 04:28:55;;;;;;;;;;;;;;;10.36;68.71;101496.63;4103027;28;19930;-66
2023/04/21 04:31:00;;;;;;;;;;;;;;;10.36;68.55;101493.94;4105477;28;20025;-66
2023/04/21 04:33:02;;;;;;;;;;;;;;;10.35;68.21;101492.22;4106734;28;20037;-67
2023/04/21 04:35:04;;;;;;;;;;;;;;;10.35;68.49;101499.50;4106396;28;20032;-68
2023/04/21 04:37:09;;;;;;;;;;;;;;;10.35;68.59;101491.38;4099871;28;20026;-67
2023/04/21 04:39:13;;;;;;;;;;;;;;;10.34;68.42;101492.38;4098695;28;20028;-68
2023/04/21 04:41:15;;;;;;;;;;;;;;;10.34;68.26;101500.47;4107894;28;20013;-67
2023/04/21 04:43:17;;;;;;;;;;;;;;;10.32;68.07;101500.59;4106784;28;20018;-67
2023/04/21 04:45:21;;;;;;;;;;;;;;;10.32;68.11;101494.38;4107932;28;20012;-67
2023/04/21 04:47:22;;;;;;;;;;;;;;;10.31;68.10;101500.75;4107037;28;20012;-67
2023/04/21 04:49:24;;;;;;;;;;;;;;;10.31;68.29;101504.31;4106651;28;19933;-67
2023/04/21 04:51:26;;;;;;;;;;;;;;;10.33;68.38;101504.19;4105579;28;20024;-66
2023/04/21 04:53:29;;;;;;;;;;;;;;;10.33;68.24;101499.66;4105898;28;20371;-67
2023/04/21 04:55:32;;;;;;;;;;;;;;;10.34;68.35;101503.19;4107649;28;20052;-67
2023/04/21 04:57:34;;;;;;;;;;;;;;;10.35;68.51;101504.88;4104900;28;20460;-67
2023/04/21 04:59:36;;;;;;;;;;;;;;;10.36;68.50;101495.75;4105822;28;20009;-67
2023/04/21 05:01:40;;;;;;;;;;;;;;;10.36;68.29;101504.72;4106393;28;20034;-67
2023/04/21 05:03:42;;;;;;;;;;;;;;;10.38;68.01;101510.81;4106916;28;20032;-67
2023/04/21 05:05:45;;;;;;;;;;;;;;;10.37;68.29;101503.72;4106806;28;20030;-67
2023/04/21 05:07:47;;;;;;;;;;;;;;;10.38;68.11;101513.50;4107334;28;20024;-67
2023/04/21 05:09:49;;;;;;;;;;;;;;;10.38;67.70;101512.69;4107415;28;19930;-67
2023/04/21 05:11:52;;;;;;;;;;;;;;;10.37;68.15;101509.09;4107653;28;20049;-68
2023/04/21 05:13:54;;;;;;;;;;;;;;;10.37;68.10;101503.72;4107049;28;20013;-67
2023/04/21 05:16:00;;;;;;;;;;;;;;;10.40;68.04;101508.78;4107052;28;20382;-67
2023/04/21 05:18:02;;;;;;;;;;;;;;;10.41;68.20;101507.81;4107788;28;20016;-68
2023/04/21 05:20:05;;;;;;;;;;;;;;;10.42;67.88;101504.09;4107782;28;20025;-67
2023/04/21 05:22:07;;;;;;;;;;;;;;;10.43;68.03;101500.38;4106577;28;20127;-67
2023/04/21 05:24:09;;;;;;;;;;;;;;;10.45;68.12;101506.50;4107020;28;20009;-67
2023/04/21 05:26:11;;;;;;;;;;;;;;;10.45;67.90;101514.59;4107473;28;20022;-67
2023/04/21 05:28:14;;;;;;;;;;;;;;;10.45;67.92;101509.19;4100162;28;20034;-67
2023/04/21 05:30:16;;;;;;;;;;;;;;;10.49;67.50;101511.59;4103300;28;20101;-67
2023/04/21 05:32:18;;;;;;;;;;;;;;;10.50;67.53;101510.56;4104787;28;20014;-67
2023/04/21 05:34:20;;;;;;;;;;;;;;;10.51;67.76;101507.69;4103740;28;20025;-67
2023/04/21 05:36:23;;;;;;;;;;;;;;;10.52;67.81;101509.41;4103185;28;20017;-67
2023/04/21 05:38:26;;;;;;;;;;;;;;;10.54;67.69;101522.75;4104990;28;20036;-67
2023/04/21 05:40:28;;;;;;;;;;;;;;;10.55;67.55;101511.78;4105939;28;20021;-67
2023/04/21 05:42:30;;;;;;;;;;;;;;;10.56;67.22;101520.72;4105154;28;20013;-67
2023/04/21 05:44:33;;;;;;;;;;;;;;;10.57;67.27;101517.88;4107092;28;20028;-68
2023/04/21 05:46:35;;;;;;;;;;;;;;;10.59;67.12;101515.84;4107575;28;20697;-67
2023/04/21 05:48:37;;;;;;;;;;;;;;;10.62;67.28;101520.09;4106592;28;20020;-68
2023/04/21 05:50:39;;;;;;;;;;;;;;;10.62;67.13;101512.84;4106357;28;20005;-67
2023/04/21 05:52:41;;;;;;;;;;;;;;;10.63;67.00;101511.84;4106363;28;20531;-67
2023/04/21 05:54:43;;;;;;;;;;;;;;;10.66;67.06;101512.50;4107331;28;20022;-67
2023/04/21 05:56:46;;;;;;;;;;;;;;;10.68;67.25;101513.22;4106359;28;20420;-66
2023/04/21 05:58:48;;;;;;;;;;;;;;;10.69;67.04;101510.38;4089072;28;20025;-67
2023/04/21 06:00:51;;;;;;;;;;;;;;;10.71;67.02;101507.50;4106906;28;20469;-67
2023/04/21 06:02:53;;;;;;;;;;;;;;;10.72;66.76;101512.75;4106876;28;20022;-67
2023/04/21 06:04:55;;;;;;;;;;;;;;;10.73;66.98;101514.44;4100160;28;20025;-67
2023/04/21 06:06:58;;;;;;;;;;;;;;;10.76;66.88;101515.97;4100364;28;20022;-66
2023/04/21 06:09:00;;;;;;;;;;;;;;;10.77;66.55;101512.28;4101294;28;20545;-66
2023/04/21 06:11:02;;;;;;;;;;;;;;;10.77;66.83;101510.41;4104557;28;20385;-67
2023/04/21 06:13:04;;;;;;;;;;;;;;;10.77;66.72;101510.41;4104214;28;20464;-67
2023/04/21 06:15:07;;;;;;;;;;;;;;;10.80;66.94;101509.25;4103997;28;20021;-67
2023/04/21 06:17:11;;;;;;;;;;;;;;;10.83;66.85;101500.81;4084481;28;20456;-67
2023/04/21 06:19:13;;;;;;;;;;;;;;;10.85;66.68;101508.78;4102349;28;20550;-67
2023/04/21 06:21:15;;;;;;;;;;;;;;;10.87;66.92;101504.88;4102962;28;20010;-67
2023/04/21 06:23:17;;;;;;;;;;;;;;;10.90;66.90;101498.31;4102228;28;20196;-67
2023/04/21 06:25:19;;;;;;;;;;;;;;;10.92;67.07;101499.84;4104242;28;20074;-67
2023/04/21 06:27:21;;;;;;;;;;;;;;;10.93;67.11;101501.53;4103665;28;20025;-67
2023/04/21 06:29:23;;;;;;;;;;;;;;;10.95;66.53;101496.81;4104012;28;20020;-68
2023/04/21 06:31:25;;;;;;;;;;;;;;;10.98;66.57;101501.06;4104418;28;21322;-68
2023/04/21 06:33:29;;;;;;;;;;;;;;;10.98;66.99;101493.78;4103983;28;20024;-68
2023/04/21 06:35:31;;;;;;;;;;;;;;;11.01;67.42;101500.75;4104272;28;20017;-67
2023/04/21 06:37:34;;;;;;;;;;;;;;;11.03;67.47;101496.00;4102439;28;19976;-67
2023/04/21 06:39:36;;;;;;;;;;;;;;;11.05;67.90;101485.91;4102376;28;20016;-68
2023/04/21 06:41:38;;;;;;;;;;;;;;;11.07;67.79;101492.00;4071983;29;20026;-67
2023/04/21 06:43:40;;;;;;;;;;;;;;;11.10;68.25;101490.81;4102970;28;20025;-67
2023/04/21 06:45:43;;;;;;;;;;;;;;;11.11;67.55;101489.78;4072248;29;20130;-68
2023/04/21 06:47:45;;;;;;;;;;;;;;;11.12;68.19;101492.34;4104296;28;20115;-67
2023/04/21 06:49:49;;;;;;;;;;;;;;;11.15;68.10;101483.06;4104801;28;20835;-67
2023/04/21 06:51:51;;;;;;;;;;;;;;;11.16;68.03;101480.19;4103373;28;19973;-67
2023/04/21 06:53:53;;;;;;;;;;;;;;;11.19;68.10;101481.75;4103511;28;20033;-67
2023/04/21 06:55:55;;;;;;;;;;;;;;;11.22;67.85;101483.25;4102365;28;20021;-68
2023/04/21 06:57:57;;;;;;;;;;;;;;;11.24;68.63;101487.50;4086002;29;19935;-68
2023/04/21 06:59:59;;;;;;;;;;;;;;;11.26;68.66;101479.22;4104454;28;20025;-68
2023/04/21 07:02:01;;;;;;;;;;;;;;;11.27;68.83;101476.34;4104315;28;20025;-68
2023/04/21 07:04:04;;;;;;;;;;;;;;;11.29;68.76;101478.91;4104579;28;20024;-68
2023/04/21 07:06:09;;;;;;;;;;;;;;;11.31;68.90;101482.28;4104607;28;20020;-68
2023/04/21 07:08:11;;;;;;;;;;;;;;;11.33;69.36;101477.53;4103697;28;20048;-68
2023/04/21 07:10:17;;;;;;;;;;;;;;;11.35;69.24;101483.66;4103193;28;20020;-68
2023/04/21 07:12:20;;;;;;;;;;;;;;;11.37;69.22;101478.91;4086956;28;19930;-68
2023/04/21 07:14:22;;;;;;;;;;;;;;;11.39;69.02;101479.59;4102400;28;20029;-67
2023/04/21 07:16:24;;;;;;;;;;;;;;;11.41;69.21;101483.00;4103811;28;20025;-68
2023/04/21 07:18:26;;;;;;;;;;;;;;;11.43;69.08;101478.25;4104202;28;20579;-68
2023/04/21 07:20:28;;;;;;;;;;;;;;;11.44;69.30;101479.97;4103618;28;20362;-68
2023/04/21 07:22:33;;;;;;;;;;;;;;;11.46;69.14;101477.94;4085807;29;20022;-68
2023/04/21 07:24:36;;;;;;;;;;;;;;;11.48;68.98;101477.78;4102718;28;21298;-68
2023/04/21 07:26:38;;;;;;;;;;;;;;;11.49;69.09;101472.19;4102984;28;20033;-67
2023/04/21 07:28:40;;;;;;;;;;;;;;;11.52;68.90;101479.16;4102212;28;20401;-68
2023/04/21 07:30:42;;;;;;;;;;;;;;;11.53;68.93;101473.53;4071699;29;20021;-68
2023/04/21 07:32:45;;;;;;;;;;;;;;;11.55;69.11;101476.06;4102366;28;20547;-68
2023/04/21 07:34:48;;;;;;;;;;;;;;;11.57;68.89;101473.22;4087722;29;20025;-68
2023/04/21 07:36:51;;;;;;;;;;;;;;;11.58;68.95;101464.94;4103143;28;20016;-68
2023/04/21 07:38:54;;;;;;;;;;;;;;;11.59;69.12;101463.94;4101425;28;20448;-68
2023/04/21 07:40:56;;;;;;;;;;;;;;;11.61;68.94;101471.88;4086682;29;20018;-68
2023/04/21 07:42:58;;;;;;;;;;;;;;;11.63;68.79;101467.13;4103191;28;20472;-67
2023/04/21 07:45:01;;;;;;;;;;;;;;;11.64;68.74;101468.84;4103983;28;20021;-68
2023/04/21 07:47:04;;;;;;;;;;;;;;;11.66;68.57;101464.09;4103707;28;20460;-69
2023/04/21 07:49:06;;;;;;;;;;;;;;;11.67;68.46;101465.81;4103708;28;20029;-69
2023/04/21 07:51:09;;;;;;;;;;;;;;;11.67;68.56;101465.81;4102549;28;20026;-69
2023/04/21 07:53:11;;;;;;;;;;;;;;;11.69;68.70;101470.03;4100832;28;19926;-68
2023/04/21 07:55:15;;;;;;;;;;;;;;;11.72;68.69;101468.84;4101552;28;20376;-67
2023/04/21 07:57:16;;;;;;;;;;;;;;;11.72;68.60;101467.00;4101924;28;20009;-69
2023/04/21 07:59:19;;;;;;;;;;;;;;;11.75;68.72;101464.97;4103153;28;20362;-68
2023/04/21 08:01:22;;;;;;;;;;;;;;;11.75;68.55;101465.81;4103139;28;20053;-69
2023/04/21 08:03:24;;;;;;;;;;;;;;;11.77;68.53;101462.94;4103387;28;20028;-69
2023/04/21 08:05:26;;;;;;;;;;;;;;;11.75;68.31;101451.44;4105618;28;20021;-68
2023/04/21 08:07:28;;;;;;;;;;;;;;;11.81;68.56;101459.72;4106131;28;20016;-69
2023/04/21 08:09:30;;;;;;;;;;;;;;;11.83;68.48;101460.44;4106136;28;20013;-69
2023/04/21 08:11:34;;;;;;;;;;;;;;;11.85;67.96;101466.50;4105959;28;20021;-68
2023/04/21 08:13:36;;;;;;;;;;;;;;;11.89;67.34;101464.31;4106393;28;20411;-69
2023/04/21 08:15:38;;;;;;;;;;;;;;;11.92;68.04;101463.13;4107103;28;20021;-68
2023/04/21 08:17:40;;;;;;;;;;;;;;;11.93;67.84;101457.59;4107428;28;20025;-69
2023/04/21 08:19:42;;;;;;;;;;;;;;;11.95;67.88;101457.41;4106626;28;20025;-69
2023/04/21 08:21:44;;;;;;;;;;;;;;;11.96;67.50;101453.69;4105546;28;20021;-69
2023/04/21 08:23:46;;;;;;;;;;;;;;;11.96;67.69;101459.09;4107939;28;20021;-69
2023/04/21 08:25:48;;;;;;;;;;;;;;;11.98;67.41;101455.22;4075038;29;20370;-69
2023/04/21 08:27:51;;;;;;;;;;;;;;;12.02;67.33;101450.28;4106578;28;20428;-69
2023/04/21 08:29:53;;;;;;;;;;;;;;;12.02;67.57;101450.28;4106475;28;20044;-69
2023/04/21 08:31:55;;;;;;;;;;;;;;;12.02;67.31;101453.88;4106448;28;20484;-69
2023/04/21 08:34:00;;;;;;;;;;;;;;;12.03;67.45;101460.94;4106929;28;19926;-69
2023/04/21 08:36:03;;;;;;;;;;;;;;;12.04;67.22;101451.00;4104572;28;20010;-67
2023/04/21 08:38:07;;;;;;;;;;;;;;;12.08;66.51;101450.50;4104745;28;20009;-67
2023/04/21 08:40:10;;;;;;;;;;;;;;;12.08;67.16;101445.06;4106750;28;20017;-67
2023/04/21 08:42:12;;;;;;;;;;;;;;;12.08;66.92;101445.06;4104674;28;20025;-67
2023/04/21 08:44:18;;;;;;;;;;;;;;;12.11;67.18;101446.56;4105968;28;20021;-67
2023/04/21 08:46:19;;;;;;;;;;;;;;;12.11;67.27;101443.88;4107447;28;20021;-67
2023/04/21 08:48:22;;;;;;;;;;;;;;;12.13;67.28;101439.16;4106697;28;20025;-67
2023/04/21 08:50:28;;;;;;;;;;;;;;;12.14;67.25;101440.81;4090303;28;20559;-67
2023/04/21 08:52:30;;;;;;;;;;;;;;;12.16;67.16;101440.66;4104937;28;20029;-67
2023/04/21 08:54:32;;;;;;;;;;;;;;;12.16;67.04;101446.06;4106351;28;20016;-67
2023/04/21 08:56:34;;;;;;;;;;;;;;;12.18;66.97;101441.34;4106169;28;20069;-67
2023/04/21 08:58:36;;;;;;;;;;;;;;;12.19;66.16;101438.44;4089126;28;20018;-69
2023/04/21 09:00:40;;;;;;;;;;;;;;;12.21;66.92;101438.25;4105770;28;20021;-67
2023/04/21 09:02:55;;;;;;;;;;;;;;;12.22;66.76;101440.81;4105427;28;20016;-67
2023/04/21 09:04:58;;;;;;;;;;;;;;;12.23;66.53;101439.78;4105440;28;20365;-70
2023/04/21 09:07:00;;;;;;;;;;;;;;;12.25;66.48;101440.47;4106524;28;20021;-68
2023/04/21 09:09:04;;;;;;;;;;;;;;;12.29;66.50;101437.41;4106580;28;20097;-68
2023/04/21 09:11:06;;;;;;;;;;;;;;;12.31;66.30;101436.22;4106314;28;20034;-69
2023/04/21 09:13:08;;;;;;;;;;;;;;;12.33;66.12;101439.59;4104958;28;20013;-67
2023/04/21 09:15:11;;;;;;;;;;;;;;;12.37;66.04;101434.72;4106580;28;19934;-68
2023/04/21 09:17:15;;;;;;;;;;;;;;;12.38;66.08;101441.81;4105171;28;20383;-68
2023/04/21 09:19:17;;;;;;;;;;;;;;;12.39;66.32;101440.81;4105874;28;20029;-68
2023/04/21 09:21:19;;;;;;;;;;;;;;;12.39;66.11;101435.38;4107103;28;20017;-67
2023/04/21 09:23:21;;;;;;;;;;;;;;;12.42;65.91;101433.16;4104814;28;20025;-67
2023/04/21 09:25:23;;;;;;;;;;;;;;;12.46;66.02;101428.28;4106182;28;20033;-68
2023/04/21 09:27:26;;;;;;;;;;;;;;;12.48;65.79;101438.94;4107041;28;20025;-68
2023/04/21 09:29:28;;;;;;;;;;;;;;;12.49;65.70;101433.34;4105759;28;20041;-68
2023/04/21 09:31:30;;;;;;;;;;;;;;;12.51;65.66;101435.88;4105057;28;20432;-67
2023/04/21 09:33:35;;;;;;;;;;;;;;;12.56;64.77;101434.31;4104137;28;20028;-67
2023/04/21 09:35:38;;;;;;;;;;;;;;;12.57;65.50;101432.44;4105115;28;20576;-67
2023/04/21 09:37:42;;;;;;;;;;;;;;;12.57;65.20;101429.75;4105324;28;20036;-67
2023/04/21 09:39:45;;;;;;;;;;;;;;;12.57;65.54;101432.44;4104554;28;20017;-68
2023/04/21 09:41:47;;;;;;;;;;;;;;;12.58;65.14;101429.56;4104416;28;20095;-69
2023/04/21 09:43:49;;;;;;;;;;;;;;;12.58;64.89;101424.16;4104675;28;20021;-68
2023/04/21 09:45:53;;;;;;;;;;;;;;;12.62;65.27;101424.66;4105186;28;20029;-67
2023/04/21 09:47:56;;;;;;;;;;;;;;;12.63;65.20;101429.03;4103296;28;20020;-67
2023/04/21 09:49:59;;;;;;;;;;;;;;;12.65;65.01;101424.31;4086913;29;20758;-67
2023/04/21 09:52:02;;;;;;;;;;;;;;;12.65;64.99;101426.16;4102634;28;20025;-67
2023/04/21 09:54:04;;;;;;;;;;;;;;;12.67;64.62;101422.28;4104223;28;20033;-68
2023/04/21 09:56:07;;;;;;;;;;;;;;;12.69;65.16;101422.94;4104814;28;20365;-67
2023/04/21 09:58:09;;;;;;;;;;;;;;;12.72;65.08;101425.28;4105484;28;20017;-68
2023/04/21 10:00:12;;;;;;;;;;;;;;;12.74;64.72;101411.56;4105646;28;20045;-67
2023/04/21 10:02:15;;;;;;;;;;;;;;;12.75;64.73;101418.69;4105119;28;20025;-67
2023/04/21 10:04:18;;;;;;;;;;;;;;;12.76;64.86;101418.53;4105517;28;20016;-66
2023/04/21 10:06:22;;;;;;;;;;;;;;;12.77;64.50;101414.78;4105134;28;20373;-67
2023/04/21 10:08:24;;;;;;;;;;;;;;;12.79;64.92;101411.91;4105870;28;20033;-67
2023/04/21 10:10:27;;;;;;;;;;;;;;;12.81;64.90;101415.28;4105226;28;20560;-66
2023/04/21 10:12:29;;;;;;;;;;;;;;;12.85;64.89;101411.19;4104094;28;20016;-67
2023/04/21 10:14:32;;;;;;;;;;;;;;;12.87;64.63;101413.72;4104147;28;20368;-67
2023/04/21 10:16:35;;;;;;;;;;;;;;;12.86;64.60;101412.88;4104673;28;19935;-67
2023/04/21 10:18:38;;;;;;;;;;;;;;;12.88;64.47;101408.13;4105916;28;20005;-67
2023/04/21 10:20:54;;;;;;;;;;;;;;;12.92;64.24;101412.19;4105648;28;20353;-67
2023/04/21 10:22:58;;;;;;;;;;;;;;;12.92;64.30;101401.34;4099497;28;20033;-67
2023/04/21 10:25:00;;;;;;;;;;;;;;;12.92;64.54;101395.91;4104710;28;20364;-67
2023/04/21 10:27:02;;;;;;;;;;;;;;;12.94;64.50;101396.56;4104708;28;20017;-66
2023/04/21 10:29:05;;;;;;;;;;;;;;;12.97;64.21;101409.78;4105312;28;20030;-67